sensor_id;sensor_type;location;lat;lon;timestamp;temperature;humidity
790;DHT22;378;48.844;9.156;2022-12-01T00:02:20;3.60;99.90
790;DHT22;378;48.844;9.156;2022-12-01T00:04:47;3.60;99.90
790;DHT22;378;48.844;9.156;2022-12-01T00:07:14;3.60;99.90
790;DHT22;378;48.844;9.156;2022-12-01T00:09:41;3.50;99.90
790;DHT22;378;48.844;9.156;2022-12-01T00:12:28;3.50;99.90
790;DHT22;378;48.844;9.156;2022-12-01T00:14:55;3.50;99.90
790;DHT22;378;48.844;9.156;2022-12-01T00:17:26;3.50;99.90
790;DHT22;378;48.844;9.156;2022-12-01T00:19:53;3.50;99.90
790;DHT22;378;48.844;9.156;2022-12-01T00:22:20;3.50;99.90
790;DHT22;378;48.844;9.156;2022-12-01T00:24:47;3.50;99.90
790;DHT22;378;48.844;9.156;2022-12-01T00:27:14;3.50;99.90
790;DHT22;378;48.844;9.156;2022-12-01T00:29:42;3.50;99.90
790;DHT22;378;48.844;9.156;2022-12-01T00:32:09;3.50;99.90
790;DHT22;378;48.844;9.156;2022-12-01T00:34:36;3.50;99.90
790;DHT22;378;48.844;9.156;2022-12-01T00:37:03;3.50;99.90
790;DHT22;378;48.844;9.156;2022-12-01T00:39:30;3.50;99.90
790;DHT22;378;48.844;9.156;2022-12-01T00:41:57;3.50;99.90
790;DHT22;378;48.844;9.156;2022-12-01T00:44:24;3.50;99.90
790;DHT22;378;48.844;9.156;2022-12-01T00:46:52;3.50;99.90
790;DHT22;378;48.844;9.156;2022-12-01T00:49:19;3.50;99.90
790;DHT22;378;48.844;9.156;2022-12-01T00:51:46;3.50;99.90
790;DHT22;378;48.844;9.156;2022-12-01T00:54:12;3.50;99.90
790;DHT22;378;48.844;9.156;2022-12-01T00:56:39;3.40;99.90
790;DHT22;378;48.844;9.156;2022-12-01T00:59:06;3.30;99.90
790;DHT22;378;48.844;9.156;2022-12-01T01:01:33;3.30;99.90
790;DHT22;378;48.844;9.156;2022-12-01T01:04:01;3.30;99.90
790;DHT22;378;48.844;9.156;2022-12-01T01:06:28;3.30;99.90
790;DHT22;378;48.844;9.156;2022-12-01T01:08:55;3.30;99.90
790;DHT22;378;48.844;9.156;2022-12-01T01:11:22;3.30;99.90
790;DHT22;378;48.844;9.156;2022-12-01T01:13:49;3.30;99.90
790;DHT22;378;48.844;9.156;2022-12-01T01:16:17;3.40;99.90
790;DHT22;378;48.844;9.156;2022-12-01T01:18:45;3.40;99.90
790;DHT22;378;48.844;9.156;2022-12-01T01:21:15;3.40;99.90
790;DHT22;378;48.844;9.156;2022-12-01T01:23:42;3.40;99.90
790;DHT22;378;48.844;9.156;2022-12-01T01:26:12;3.40;99.90
790;DHT22;378;48.844;9.156;2022-12-01T01:28:39;3.30;99.90
790;DHT22;378;48.844;9.156;2022-12-01T01:31:07;3.40;99.90
790;DHT22;378;48.844;9.156;2022-12-01T01:33:34;3.30;99.90
790;DHT22;378;48.844;9.156;2022-12-01T01:36:02;3.30;99.90
790;DHT22;378;48.844;9.156;2022-12-01T01:38:32;3.30;99.90
790;DHT22;378;48.844;9.156;2022-12-01T01:40:59;3.30;99.90
790;DHT22;378;48.844;9.156;2022-12-01T01:43:39;3.30;99.90
790;DHT22;378;48.844;9.156;2022-12-01T01:46:06;3.30;99.90
790;DHT22;378;48.844;9.156;2022-12-01T01:48:34;3.30;99.90
790;DHT22;378;48.844;9.156;2022-12-01T01:51:02;3.30;99.90
790;DHT22;378;48.844;9.156;2022-12-01T01:53:31;3.30;99.90
790;DHT22;378;48.844;9.156;2022-12-01T01:55:59;3.30;99.90
790;DHT22;378;48.844;9.156;2022-12-01T01:58:26;3.30;99.90
790;DHT22;378;48.844;9.156;2022-12-01T02:00:53;3.30;99.90
790;DHT22;378;48.844;9.156;2022-12-01T02:03:21;3.40;99.90
790;DHT22;378;48.844;9.156;2022-12-01T02:05:48;3.30;99.90
790;DHT22;378;48.844;9.156;2022-12-01T02:08:15;3.30;99.90
790;DHT22;378;48.844;9.156;2022-12-01T02:10:57;3.30;99.90
790;DHT22;378;48.844;9.156;2022-12-01T02:13:32;3.30;99.90
790;DHT22;378;48.844;9.156;2022-12-01T02:16:10;3.30;99.90
790;DHT22;378;48.844;9.156;2022-12-01T02:18:46;3.30;99.90
790;DHT22;378;48.844;9.156;2022-12-01T02:21:28;3.30;99.90
790;DHT22;378;48.844;9.156;2022-12-01T02:24:40;3.30;99.90
790;DHT22;378;48.844;9.156;2022-12-01T02:27:19;3.40;99.90
790;DHT22;378;48.844;9.156;2022-12-01T02:30:03;3.40;99.90
790;DHT22;378;48.844;9.156;2022-12-01T02:32:39;3.40;99.90
790;DHT22;378;48.844;9.156;2022-12-01T02:35:13;3.40;99.90
790;DHT22;378;48.844;9.156;2022-12-01T02:37:44;3.30;99.90
790;DHT22;378;48.844;9.156;2022-12-01T02:40:19;3.30;99.90
790;DHT22;378;48.844;9.156;2022-12-01T02:42:51;3.20;99.90
790;DHT22;378;48.844;9.156;2022-12-01T02:45:32;3.20;99.90
790;DHT22;378;48.844;9.156;2022-12-01T02:48:05;3.20;99.90
790;DHT22;378;48.844;9.156;2022-12-01T02:50:34;3.10;99.90
790;DHT22;378;48.844;9.156;2022-12-01T02:53:04;3.10;99.90
790;DHT22;378;48.844;9.156;2022-12-01T02:55:31;3.10;99.90
790;DHT22;378;48.844;9.156;2022-12-01T02:57:58;3.10;99.90
790;DHT22;378;48.844;9.156;2022-12-01T03:00:25;3.10;99.90
790;DHT22;378;48.844;9.156;2022-12-01T03:03:19;3.10;99.90
790;DHT22;378;48.844;9.156;2022-12-01T03:05:52;3.20;99.90
790;DHT22;378;48.844;9.156;2022-12-01T03:08:31;3.20;99.90
790;DHT22;378;48.844;9.156;2022-12-01T03:11:02;3.20;99.90
790;DHT22;378;48.844;9.156;2022-12-01T03:13:37;3.10;99.90
790;DHT22;378;48.844;9.156;2022-12-01T03:16:08;3.20;99.90
790;DHT22;378;48.844;9.156;2022-12-01T03:18:41;3.20;99.90
790;DHT22;378;48.844;9.156;2022-12-01T03:21:13;3.10;99.90
790;DHT22;378;48.844;9.156;2022-12-01T03:23:46;3.20;99.90
790;DHT22;378;48.844;9.156;2022-12-01T03:26:16;3.00;99.90
790;DHT22;378;48.844;9.156;2022-12-01T03:28:47;3.10;99.90
790;DHT22;378;48.844;9.156;2022-12-01T03:31:18;3.00;99.90
790;DHT22;378;48.844;9.156;2022-12-01T03:33:49;3.00;99.90
790;DHT22;378;48.844;9.156;2022-12-01T03:36:21;3.00;99.90
790;DHT22;378;48.844;9.156;2022-12-01T03:38:53;3.00;99.90
790;DHT22;378;48.844;9.156;2022-12-01T03:41:31;3.00;99.90
790;DHT22;378;48.844;9.156;2022-12-01T03:44:05;2.90;99.90
790;DHT22;378;48.844;9.156;2022-12-01T03:46:39;2.90;99.90
790;DHT22;378;48.844;9.156;2022-12-01T03:49:10;2.80;99.90
790;DHT22;378;48.844;9.156;2022-12-01T03:51:41;2.90;99.90
790;DHT22;378;48.844;9.156;2022-12-01T03:54:17;2.80;99.90
790;DHT22;378;48.844;9.156;2022-12-01T03:56:49;2.80;99.90
790;DHT22;378;48.844;9.156;2022-12-01T03:59:18;2.90;99.90
790;DHT22;378;48.844;9.156;2022-12-01T04:01:47;2.80;99.90
790;DHT22;378;48.844;9.156;2022-12-01T04:04:15;2.90;99.90
790;DHT22;378;48.844;9.156;2022-12-01T04:06:45;2.80;99.90
790;DHT22;378;48.844;9.156;2022-12-01T04:09:13;2.90;99.90
790;DHT22;378;48.844;9.156;2022-12-01T04:11:40;2.90;99.90
790;DHT22;378;48.844;9.156;2022-12-01T04:14:24;2.80;99.90
790;DHT22;378;48.844;9.156;2022-12-01T04:16:51;2.80;99.90
790;DHT22;378;48.844;9.156;2022-12-01T04:19:20;2.80;99.90
790;DHT22;378;48.844;9.156;2022-12-01T04:21:46;2.80;99.90
790;DHT22;378;48.844;9.156;2022-12-01T04:24:13;2.80;99.90
790;DHT22;378;48.844;9.156;2022-12-01T04:26:40;2.80;99.90
790;DHT22;378;48.844;9.156;2022-12-01T04:29:09;2.90;99.90
790;DHT22;378;48.844;9.156;2022-12-01T04:31:36;2.80;99.90
790;DHT22;378;48.844;9.156;2022-12-01T04:34:03;2.80;99.90
790;DHT22;378;48.844;9.156;2022-12-01T04:36:33;2.80;99.90
790;DHT22;378;48.844;9.156;2022-12-01T04:39:00;2.90;99.90
790;DHT22;378;48.844;9.156;2022-12-01T04:41:28;2.90;99.90
790;DHT22;378;48.844;9.156;2022-12-01T04:43:55;2.90;99.90
790;DHT22;378;48.844;9.156;2022-12-01T04:46:22;2.90;99.90
790;DHT22;378;48.844;9.156;2022-12-01T04:48:49;3.00;99.90
790;DHT22;378;48.844;9.156;2022-12-01T04:51:16;3.00;99.90
790;DHT22;378;48.844;9.156;2022-12-01T04:53:44;3.00;99.90
790;DHT22;378;48.844;9.156;2022-12-01T04:56:11;3.00;99.90
790;DHT22;378;48.844;9.156;2022-12-01T04:58:39;2.90;99.90
790;DHT22;378;48.844;9.156;2022-12-01T05:01:08;3.00;99.90
790;DHT22;378;48.844;9.156;2022-12-01T05:03:36;3.00;99.90
790;DHT22;378;48.844;9.156;2022-12-01T05:06:04;3.00;99.90
790;DHT22;378;48.844;9.156;2022-12-01T05:08:31;3.10;99.90
790;DHT22;378;48.844;9.156;2022-12-01T05:11:00;3.00;99.90
790;DHT22;378;48.844;9.156;2022-12-01T05:13:27;3.00;99.90
790;DHT22;378;48.844;9.156;2022-12-01T05:16:03;3.00;99.90
790;DHT22;378;48.844;9.156;2022-12-01T05:18:30;3.00;99.90
790;DHT22;378;48.844;9.156;2022-12-01T05:20:57;3.10;99.90
790;DHT22;378;48.844;9.156;2022-12-01T05:23:23;3.10;99.90
790;DHT22;378;48.844;9.156;2022-12-01T05:25:50;3.10;99.90
790;DHT22;378;48.844;9.156;2022-12-01T05:28:18;3.10;99.90
790;DHT22;378;48.844;9.156;2022-12-01T05:30:45;3.00;99.90
790;DHT22;378;48.844;9.156;2022-12-01T05:33:12;3.10;99.90
790;DHT22;378;48.844;9.156;2022-12-01T05:35:38;3.10;99.90
790;DHT22;378;48.844;9.156;2022-12-01T05:38:05;3.10;99.90
790;DHT22;378;48.844;9.156;2022-12-01T05:40:33;3.20;99.90
790;DHT22;378;48.844;9.156;2022-12-01T05:43:00;3.10;99.90
790;DHT22;378;48.844;9.156;2022-12-01T05:45:28;3.10;99.90
790;DHT22;378;48.844;9.156;2022-12-01T05:47:55;3.10;99.90
790;DHT22;378;48.844;9.156;2022-12-01T05:50:23;3.10;99.90
790;DHT22;378;48.844;9.156;2022-12-01T05:52:50;3.10;99.90
790;DHT22;378;48.844;9.156;2022-12-01T05:55:16;3.00;99.90
790;DHT22;378;48.844;9.156;2022-12-01T05:57:43;3.00;99.90
790;DHT22;378;48.844;9.156;2022-12-01T06:00:11;3.00;99.90
790;DHT22;378;48.844;9.156;2022-12-01T06:02:40;3.10;99.90
790;DHT22;378;48.844;9.156;2022-12-01T06:05:08;3.10;99.90
790;DHT22;378;48.844;9.156;2022-12-01T06:07:35;3.00;99.90
790;DHT22;378;48.844;9.156;2022-12-01T06:10:05;3.00;99.90
790;DHT22;378;48.844;9.156;2022-12-01T06:12:32;3.00;99.90
790;DHT22;378;48.844;9.156;2022-12-01T06:14:59;3.00;99.90
790;DHT22;378;48.844;9.156;2022-12-01T06:17:26;3.00;99.90
790;DHT22;378;48.844;9.156;2022-12-01T06:19:54;3.10;99.90
790;DHT22;378;48.844;9.156;2022-12-01T06:22:21;3.10;99.90
790;DHT22;378;48.844;9.156;2022-12-01T06:24:48;3.10;99.90
790;DHT22;378;48.844;9.156;2022-12-01T06:27:15;3.00;99.90
790;DHT22;378;48.844;9.156;2022-12-01T06:29:42;3.00;99.90
790;DHT22;378;48.844;9.156;2022-12-01T06:32:09;3.00;99.90
790;DHT22;378;48.844;9.156;2022-12-01T06:34:36;3.00;99.90
790;DHT22;378;48.844;9.156;2022-12-01T06:37:04;3.00;99.90
790;DHT22;378;48.844;9.156;2022-12-01T06:39:30;3.00;99.90
790;DHT22;378;48.844;9.156;2022-12-01T06:41:57;3.00;99.90
790;DHT22;378;48.844;9.156;2022-12-01T06:44:24;3.00;99.90
790;DHT22;378;48.844;9.156;2022-12-01T06:46:51;3.00;99.90
790;DHT22;378;48.844;9.156;2022-12-01T06:49:18;3.00;99.90
790;DHT22;378;48.844;9.156;2022-12-01T06:51:45;2.90;99.90
790;DHT22;378;48.844;9.156;2022-12-01T06:54:14;3.00;99.90
790;DHT22;378;48.844;9.156;2022-12-01T06:56:42;3.00;99.90
790;DHT22;378;48.844;9.156;2022-12-01T06:59:09;3.00;99.90
790;DHT22;378;48.844;9.156;2022-12-01T07:01:36;3.00;99.90
790;DHT22;378;48.844;9.156;2022-12-01T07:04:03;3.10;99.90
790;DHT22;378;48.844;9.156;2022-12-01T07:06:30;3.10;99.90
790;DHT22;378;48.844;9.156;2022-12-01T07:08:57;3.00;99.90
790;DHT22;378;48.844;9.156;2022-12-01T07:11:25;3.00;99.90
790;DHT22;378;48.844;9.156;2022-12-01T07:13:54;3.00;99.90
790;DHT22;378;48.844;9.156;2022-12-01T07:16:21;2.90;99.90
790;DHT22;378;48.844;9.156;2022-12-01T07:18:48;3.00;99.90
790;DHT22;378;48.844;9.156;2022-12-01T07:21:15;2.90;99.90
790;DHT22;378;48.844;9.156;2022-12-01T07:24:01;2.90;99.90
790;DHT22;378;48.844;9.156;2022-12-01T07:27:11;2.90;99.90
790;DHT22;378;48.844;9.156;2022-12-01T07:30:10;3.00;99.90
790;DHT22;378;48.844;9.156;2022-12-01T07:32:50;3.00;99.90
790;DHT22;378;48.844;9.156;2022-12-01T07:35:43;3.00;99.90
790;DHT22;378;48.844;9.156;2022-12-01T07:38:28;3.10;99.90
790;DHT22;378;48.844;9.156;2022-12-01T07:41:53;3.00;99.90
790;DHT22;378;48.844;9.156;2022-12-01T07:44:45;3.00;99.90
790;DHT22;378;48.844;9.156;2022-12-01T07:47:25;3.00;99.90
790;DHT22;378;48.844;9.156;2022-12-01T07:50:10;3.00;99.90
790;DHT22;378;48.844;9.156;2022-12-01T07:53:05;3.00;99.90
790;DHT22;378;48.844;9.156;2022-12-01T07:55:57;3.00;99.90
790;DHT22;378;48.844;9.156;2022-12-01T07:58:56;3.10;99.90
790;DHT22;378;48.844;9.156;2022-12-01T08:02:12;3.10;99.90
790;DHT22;378;48.844;9.156;2022-12-01T08:05:11;3.10;99.90
790;DHT22;378;48.844;9.156;2022-12-01T08:08:03;3.20;99.90
790;DHT22;378;48.844;9.156;2022-12-01T08:11:13;3.20;99.90
790;DHT22;378;48.844;9.156;2022-12-01T08:14:14;3.30;99.90
790;DHT22;378;48.844;9.156;2022-12-01T08:17:18;3.30;99.90
790;DHT22;378;48.844;9.156;2022-12-01T08:20:04;3.20;99.90
790;DHT22;378;48.844;9.156;2022-12-01T08:22:55;3.20;99.90
790;DHT22;378;48.844;9.156;2022-12-01T08:28:30;3.30;99.90
790;DHT22;378;48.844;9.156;2022-12-01T08:31:15;3.20;99.90
790;DHT22;378;48.844;9.156;2022-12-01T08:34:04;3.20;99.90
790;DHT22;378;48.844;9.156;2022-12-01T08:36:52;3.30;99.90
790;DHT22;378;48.844;9.156;2022-12-01T08:39:42;3.30;99.90
790;DHT22;378;48.844;9.156;2022-12-01T08:42:36;3.40;99.90
790;DHT22;378;48.844;9.156;2022-12-01T08:45:23;3.30;99.90
790;DHT22;378;48.844;9.156;2022-12-01T08:48:15;3.40;99.90
790;DHT22;378;48.844;9.156;2022-12-01T08:54:20;3.30;99.90
790;DHT22;378;48.844;9.156;2022-12-01T08:57:23;3.30;99.90
790;DHT22;378;48.844;9.156;2022-12-01T09:00:48;3.30;99.90
790;DHT22;378;48.844;9.156;2022-12-01T09:07:14;3.40;99.90
790;DHT22;378;48.844;9.156;2022-12-01T09:29:48;3.60;99.90
790;DHT22;378;48.844;9.156;2022-12-01T09:32:41;3.60;99.90
790;DHT22;378;48.844;9.156;2022-12-01T09:35:40;3.60;99.90
790;DHT22;378;48.844;9.156;2022-12-01T09:38:14;3.60;99.90
790;DHT22;378;48.844;9.156;2022-12-01T09:40:57;3.60;99.90
790;DHT22;378;48.844;9.156;2022-12-01T09:43:53;3.60;99.90
790;DHT22;378;48.844;9.156;2022-12-01T09:52:53;3.80;99.90
790;DHT22;378;48.844;9.156;2022-12-01T09:56:05;3.90;99.90
790;DHT22;378;48.844;9.156;2022-12-01T09:59:01;3.80;99.90
790;DHT22;378;48.844;9.156;2022-12-01T10:01:59;3.90;99.90
790;DHT22;378;48.844;9.156;2022-12-01T10:04:32;3.90;99.90
790;DHT22;378;48.844;9.156;2022-12-01T10:07:42;3.80;99.90
790;DHT22;378;48.844;9.156;2022-12-01T10:10:22;3.90;99.90
790;DHT22;378;48.844;9.156;2022-12-01T10:13:30;3.90;99.90
790;DHT22;378;48.844;9.156;2022-12-01T10:16:08;3.90;99.90
790;DHT22;378;48.844;9.156;2022-12-01T10:19:02;3.90;99.90
790;DHT22;378;48.844;9.156;2022-12-01T10:22:11;3.90;99.90
790;DHT22;378;48.844;9.156;2022-12-01T10:25:00;3.90;99.90
790;DHT22;378;48.844;9.156;2022-12-01T10:27:51;3.90;99.90
790;DHT22;378;48.844;9.156;2022-12-01T10:30:37;4.00;99.90
790;DHT22;378;48.844;9.156;2022-12-01T10:36:19;4.00;99.90
790;DHT22;378;48.844;9.156;2022-12-01T10:39:13;4.10;99.90
790;DHT22;378;48.844;9.156;2022-12-01T10:42:13;4.10;99.90
790;DHT22;378;48.844;9.156;2022-12-01T10:45:00;4.20;99.90
790;DHT22;378;48.844;9.156;2022-12-01T10:51:19;4.20;99.90
790;DHT22;378;48.844;9.156;2022-12-01T10:54:07;4.10;99.90
790;DHT22;378;48.844;9.156;2022-12-01T10:57:04;4.20;99.90
790;DHT22;378;48.844;9.156;2022-12-01T11:00:03;4.30;99.90
790;DHT22;378;48.844;9.156;2022-12-01T11:02:57;4.30;99.90
790;DHT22;378;48.844;9.156;2022-12-01T11:06:00;4.30;99.90
790;DHT22;378;48.844;9.156;2022-12-01T11:08:50;4.30;99.90
790;DHT22;378;48.844;9.156;2022-12-01T11:11:41;4.30;99.90
790;DHT22;378;48.844;9.156;2022-12-01T11:14:41;4.20;99.90
790;DHT22;378;48.844;9.156;2022-12-01T11:17:40;4.20;99.90
790;DHT22;378;48.844;9.156;2022-12-01T11:23:36;4.20;99.90
790;DHT22;378;48.844;9.156;2022-12-01T11:26:29;4.40;99.90
790;DHT22;378;48.844;9.156;2022-12-01T11:29:35;4.40;99.90
790;DHT22;378;48.844;9.156;2022-12-01T11:32:30;4.50;99.90
790;DHT22;378;48.844;9.156;2022-12-01T11:35:26;4.50;99.90
790;DHT22;378;48.844;9.156;2022-12-01T11:41:33;4.50;99.90
790;DHT22;378;48.844;9.156;2022-12-01T11:44:27;4.70;99.90
790;DHT22;378;48.844;9.156;2022-12-01T11:48:18;4.70;99.90
790;DHT22;378;48.844;9.156;2022-12-01T11:51:14;4.70;99.90
790;DHT22;378;48.844;9.156;2022-12-01T11:54:12;4.80;99.90
790;DHT22;378;48.844;9.156;2022-12-01T11:56:59;4.80;99.90
790;DHT22;378;48.844;9.156;2022-12-01T11:59:47;4.70;99.90
790;DHT22;378;48.844;9.156;2022-12-01T12:02:30;4.70;99.90
790;DHT22;378;48.844;9.156;2022-12-01T12:05:51;4.80;99.90
790;DHT22;378;48.844;9.156;2022-12-01T12:08:51;4.80;99.90
790;DHT22;378;48.844;9.156;2022-12-01T12:11:35;4.90;99.90
790;DHT22;378;48.844;9.156;2022-12-01T12:14:43;4.90;99.90
790;DHT22;378;48.844;9.156;2022-12-01T12:17:49;5.00;99.90
790;DHT22;378;48.844;9.156;2022-12-01T12:21:03;5.10;99.90
790;DHT22;378;48.844;9.156;2022-12-01T12:27:50;5.30;99.90
790;DHT22;378;48.844;9.156;2022-12-01T12:30:35;5.40;99.90
790;DHT22;378;48.844;9.156;2022-12-01T12:37:12;5.50;99.90
790;DHT22;378;48.844;9.156;2022-12-01T12:40:28;5.40;99.90
790;DHT22;378;48.844;9.156;2022-12-01T12:43:26;5.30;99.90
790;DHT22;378;48.844;9.156;2022-12-01T12:49:26;5.20;99.90
790;DHT22;378;48.844;9.156;2022-12-01T12:52:21;5.10;99.90
790;DHT22;378;48.844;9.156;2022-12-01T12:58:52;5.20;99.90
790;DHT22;378;48.844;9.156;2022-12-01T13:01:56;5.20;99.90
790;DHT22;378;48.844;9.156;2022-12-01T13:07:54;5.30;99.90
790;DHT22;378;48.844;9.156;2022-12-01T13:10:39;5.40;99.90
790;DHT22;378;48.844;9.156;2022-12-01T13:13:54;5.30;99.90
790;DHT22;378;48.844;9.156;2022-12-01T13:17:01;5.10;99.90
790;DHT22;378;48.844;9.156;2022-12-01T13:23:11;5.20;99.90
790;DHT22;378;48.844;9.156;2022-12-01T13:26:14;5.20;99.90
790;DHT22;378;48.844;9.156;2022-12-01T13:28:59;5.10;99.90
790;DHT22;378;48.844;9.156;2022-12-01T13:31:52;5.10;99.90
790;DHT22;378;48.844;9.156;2022-12-01T13:34:40;5.10;99.90
790;DHT22;378;48.844;9.156;2022-12-01T13:40:50;5.00;99.90
790;DHT22;378;48.844;9.156;2022-12-01T13:44:21;5.00;99.90
790;DHT22;378;48.844;9.156;2022-12-01T13:47:40;4.90;99.90
790;DHT22;378;48.844;9.156;2022-12-01T13:50:57;4.80;99.90
790;DHT22;378;48.844;9.156;2022-12-01T13:57:41;4.60;99.90
790;DHT22;378;48.844;9.156;2022-12-01T14:00:48;4.60;99.90
790;DHT22;378;48.844;9.156;2022-12-01T14:03:38;4.60;99.90
790;DHT22;378;48.844;9.156;2022-12-01T14:06:35;4.60;99.90
790;DHT22;378;48.844;9.156;2022-12-01T14:09:29;4.70;99.90
790;DHT22;378;48.844;9.156;2022-12-01T14:12:19;4.60;99.90
790;DHT22;378;48.844;9.156;2022-12-01T14:18:58;4.60;99.90
790;DHT22;378;48.844;9.156;2022-12-01T14:21:50;4.60;99.90
790;DHT22;378;48.844;9.156;2022-12-01T14:24:50;4.60;99.90
790;DHT22;378;48.844;9.156;2022-12-01T14:27:35;4.60;99.90
790;DHT22;378;48.844;9.156;2022-12-01T14:36:46;4.60;99.90
790;DHT22;378;48.844;9.156;2022-12-01T14:39:30;4.60;99.90
790;DHT22;378;48.844;9.156;2022-12-01T14:47:47;4.60;99.90
790;DHT22;378;48.844;9.156;2022-12-01T14:50:19;4.60;99.90
790;DHT22;378;48.844;9.156;2022-12-01T14:52:52;4.60;99.90
790;DHT22;378;48.844;9.156;2022-12-01T14:55:22;4.60;99.90
790;DHT22;378;48.844;9.156;2022-12-01T14:57:52;4.60;99.90
790;DHT22;378;48.844;9.156;2022-12-01T15:00:25;4.60;99.90
790;DHT22;378;48.844;9.156;2022-12-01T15:02:55;4.60;99.90
790;DHT22;378;48.844;9.156;2022-12-01T15:05:25;4.60;99.90
790;DHT22;378;48.844;9.156;2022-12-01T15:07:55;4.60;99.90
790;DHT22;378;48.844;9.156;2022-12-01T15:10:24;4.60;99.90
790;DHT22;378;48.844;9.156;2022-12-01T15:12:53;4.60;99.90
790;DHT22;378;48.844;9.156;2022-12-01T15:15:22;4.60;99.90
790;DHT22;378;48.844;9.156;2022-12-01T15:17:50;4.60;99.90
790;DHT22;378;48.844;9.156;2022-12-01T15:20:30;4.60;99.90
790;DHT22;378;48.844;9.156;2022-12-01T15:23:01;4.60;99.90
790;DHT22;378;48.844;9.156;2022-12-01T15:25:33;4.60;99.90
790;DHT22;378;48.844;9.156;2022-12-01T15:28:09;4.60;99.90
790;DHT22;378;48.844;9.156;2022-12-01T15:30:37;4.60;99.90
790;DHT22;378;48.844;9.156;2022-12-01T15:33:05;4.60;99.90
790;DHT22;378;48.844;9.156;2022-12-01T15:35:34;4.60;99.90
790;DHT22;378;48.844;9.156;2022-12-01T15:38:03;4.50;99.90
790;DHT22;378;48.844;9.156;2022-12-01T15:40:30;4.50;99.90
790;DHT22;378;48.844;9.156;2022-12-01T15:43:02;4.50;99.90
790;DHT22;378;48.844;9.156;2022-12-01T15:45:43;4.50;99.90
790;DHT22;378;48.844;9.156;2022-12-01T15:48:14;4.50;99.90
790;DHT22;378;48.844;9.156;2022-12-01T15:50:45;4.50;99.90
790;DHT22;378;48.844;9.156;2022-12-01T15:53:21;4.50;99.90
790;DHT22;378;48.844;9.156;2022-12-01T15:55:49;4.40;99.90
790;DHT22;378;48.844;9.156;2022-12-01T15:58:19;4.40;99.90
790;DHT22;378;48.844;9.156;2022-12-01T16:00:54;4.40;99.90
790;DHT22;378;48.844;9.156;2022-12-01T16:03:22;4.40;99.90
790;DHT22;378;48.844;9.156;2022-12-01T16:05:49;4.40;99.90
790;DHT22;378;48.844;9.156;2022-12-01T16:08:20;4.40;99.90
790;DHT22;378;48.844;9.156;2022-12-01T16:11:09;4.40;99.90
790;DHT22;378;48.844;9.156;2022-12-01T16:13:46;4.40;99.90
790;DHT22;378;48.844;9.156;2022-12-01T16:16:25;4.40;99.90
790;DHT22;378;48.844;9.156;2022-12-01T16:18:55;4.40;99.90
790;DHT22;378;48.844;9.156;2022-12-01T16:21:23;4.30;99.90
790;DHT22;378;48.844;9.156;2022-12-01T16:23:58;4.30;99.90
790;DHT22;378;48.844;9.156;2022-12-01T16:26:26;4.20;99.90
790;DHT22;378;48.844;9.156;2022-12-01T16:28:54;4.20;99.90
790;DHT22;378;48.844;9.156;2022-12-01T16:31:21;4.10;99.90
790;DHT22;378;48.844;9.156;2022-12-01T16:33:58;4.00;99.90
790;DHT22;378;48.844;9.156;2022-12-01T16:36:26;4.00;99.90
790;DHT22;378;48.844;9.156;2022-12-01T16:38:53;4.00;99.90
790;DHT22;378;48.844;9.156;2022-12-01T16:41:29;3.90;99.90
790;DHT22;378;48.844;9.156;2022-12-01T16:43:57;3.90;99.90
790;DHT22;378;48.844;9.156;2022-12-01T16:46:24;3.90;99.90
790;DHT22;378;48.844;9.156;2022-12-01T16:48:50;3.90;99.90
790;DHT22;378;48.844;9.156;2022-12-01T16:51:17;3.90;99.90
790;DHT22;378;48.844;9.156;2022-12-01T16:53:44;3.90;99.90
790;DHT22;378;48.844;9.156;2022-12-01T16:56:13;3.80;99.90
790;DHT22;378;48.844;9.156;2022-12-01T16:58:41;3.80;99.90
790;DHT22;378;48.844;9.156;2022-12-01T17:01:09;3.80;99.90
790;DHT22;378;48.844;9.156;2022-12-01T17:03:36;3.80;99.90
790;DHT22;378;48.844;9.156;2022-12-01T17:06:04;3.80;99.90
790;DHT22;378;48.844;9.156;2022-12-01T17:08:31;3.80;99.90
790;DHT22;378;48.844;9.156;2022-12-01T17:10:58;3.80;99.90
790;DHT22;378;48.844;9.156;2022-12-01T17:13:25;3.70;99.90
790;DHT22;378;48.844;9.156;2022-12-01T17:15:54;3.80;99.90
790;DHT22;378;48.844;9.156;2022-12-01T17:18:21;3.70;99.90
790;DHT22;378;48.844;9.156;2022-12-01T17:20:55;3.80;99.90
790;DHT22;378;48.844;9.156;2022-12-01T17:23:22;3.80;99.90
790;DHT22;378;48.844;9.156;2022-12-01T17:25:49;3.80;99.90
790;DHT22;378;48.844;9.156;2022-12-01T17:28:16;3.80;99.90
790;DHT22;378;48.844;9.156;2022-12-01T17:30:43;3.80;99.90
790;DHT22;378;48.844;9.156;2022-12-01T17:33:12;3.80;99.90
790;DHT22;378;48.844;9.156;2022-12-01T17:35:39;3.70;99.90
790;DHT22;378;48.844;9.156;2022-12-01T17:38:06;3.70;99.90
790;DHT22;378;48.844;9.156;2022-12-01T17:40:33;3.80;99.90
790;DHT22;378;48.844;9.156;2022-12-01T17:43:00;3.70;99.90
790;DHT22;378;48.844;9.156;2022-12-01T17:45:27;3.70;99.90
790;DHT22;378;48.844;9.156;2022-12-01T17:47:54;3.70;99.90
790;DHT22;378;48.844;9.156;2022-12-01T17:50:22;3.70;99.90
790;DHT22;378;48.844;9.156;2022-12-01T17:52:49;3.70;99.90
790;DHT22;378;48.844;9.156;2022-12-01T17:55:16;3.70;99.90
790;DHT22;378;48.844;9.156;2022-12-01T17:57:44;3.80;99.90
790;DHT22;378;48.844;9.156;2022-12-01T18:00:12;3.80;99.90
790;DHT22;378;48.844;9.156;2022-12-01T18:02:39;3.80;99.90
790;DHT22;378;48.844;9.156;2022-12-01T18:05:06;3.80;99.90
790;DHT22;378;48.844;9.156;2022-12-01T18:07:35;3.80;99.90
790;DHT22;378;48.844;9.156;2022-12-01T18:10:02;3.80;99.90
790;DHT22;378;48.844;9.156;2022-12-01T18:12:29;3.80;99.90
790;DHT22;378;48.844;9.156;2022-12-01T18:14:56;3.80;99.90
790;DHT22;378;48.844;9.156;2022-12-01T18:17:23;3.80;99.90
790;DHT22;378;48.844;9.156;2022-12-01T18:19:51;3.80;99.90
790;DHT22;378;48.844;9.156;2022-12-01T18:22:18;3.80;99.90
790;DHT22;378;48.844;9.156;2022-12-01T18:24:46;3.80;99.90
790;DHT22;378;48.844;9.156;2022-12-01T18:27:13;3.80;99.90
790;DHT22;378;48.844;9.156;2022-12-01T18:29:40;3.80;99.90
790;DHT22;378;48.844;9.156;2022-12-01T18:32:07;3.80;99.90
790;DHT22;378;48.844;9.156;2022-12-01T18:34:34;3.80;99.90
790;DHT22;378;48.844;9.156;2022-12-01T18:37:01;3.80;99.90
790;DHT22;378;48.844;9.156;2022-12-01T18:39:30;3.80;99.90
790;DHT22;378;48.844;9.156;2022-12-01T18:41:58;3.80;99.90
790;DHT22;378;48.844;9.156;2022-12-01T18:44:31;3.80;99.90
790;DHT22;378;48.844;9.156;2022-12-01T18:47:19;3.80;99.90
790;DHT22;378;48.844;9.156;2022-12-01T18:49:46;3.80;99.90
790;DHT22;378;48.844;9.156;2022-12-01T18:52:12;3.80;99.90
790;DHT22;378;48.844;9.156;2022-12-01T18:54:39;3.80;99.90
790;DHT22;378;48.844;9.156;2022-12-01T18:57:08;3.80;99.90
790;DHT22;378;48.844;9.156;2022-12-01T18:59:36;3.80;99.90
790;DHT22;378;48.844;9.156;2022-12-01T19:02:03;3.80;99.90
790;DHT22;378;48.844;9.156;2022-12-01T19:04:30;3.80;99.90
790;DHT22;378;48.844;9.156;2022-12-01T19:06:57;3.80;99.90
790;DHT22;378;48.844;9.156;2022-12-01T19:09:23;3.80;99.90
790;DHT22;378;48.844;9.156;2022-12-01T19:11:50;3.80;99.90
790;DHT22;378;48.844;9.156;2022-12-01T19:14:26;3.80;99.90
790;DHT22;378;48.844;9.156;2022-12-01T19:16:54;3.80;99.90
790;DHT22;378;48.844;9.156;2022-12-01T19:19:21;3.80;99.90
790;DHT22;378;48.844;9.156;2022-12-01T19:21:48;3.80;99.90
790;DHT22;378;48.844;9.156;2022-12-01T19:24:15;3.80;99.90
790;DHT22;378;48.844;9.156;2022-12-01T19:26:42;3.80;99.90
790;DHT22;378;48.844;9.156;2022-12-01T19:29:09;3.80;99.90
790;DHT22;378;48.844;9.156;2022-12-01T19:31:38;3.80;99.90